sensor_id;sensor_type;location;lat;lon;timestamp;pressure;altitude;pressure_sealevel;temperature;humidity
36788;BME280;22738;45.560;9.434;2023-04-26T00:01:00;99477.47;;;10.50;100.00
36788;BME280;22738;45.560;9.434;2023-04-26T00:07:45;99478.72;;;10.32;100.00
36788;BME280;22738;45.560;9.434;2023-04-26T00:14:26;99478.91;;;10.03;100.00
36788;BME280;22738;45.560;9.434;2023-04-26T00:21:07;99478.50;;;10.10;100.00
36788;BME280;22738;45.560;9.434;2023-04-26T00:27:48;99477.38;;;10.14;100.00
36788;BME280;22738;45.560;9.434;2023-04-26T00:34:34;99484.91;;;9.91;100.00
36788;BME280;22738;45.560;9.434;2023-04-26T00:41:16;99483.47;;;9.87;100.00
36788;BME280;22738;45.560;9.434;2023-04-26T00:48:00;99497.31;;;9.86;100.00
36788;BME280;22738;45.560;9.434;2023-04-26T00:54:41;99514.28;;;9.90;100.00
36788;BME280;22738;45.560;9.434;2023-04-26T01:01:23;99517.09;;;9.87;100.00
36788;BME280;22738;45.560;9.434;2023-04-26T01:08:05;99530.72;;;9.64;100.00
36788;BME280;22738;45.560;9.434;2023-04-26T01:14:46;99538.88;;;9.58;100.00
36788;BME280;22738;45.560;9.434;2023-04-26T01:21:27;99543.66;;;9.64;100.00
36788;BME280;22738;45.560;9.434;2023-04-26T01:28:09;99547.72;;;9.42;100.00
36788;BME280;22738;45.560;9.434;2023-04-26T01:34:50;99550.00;;;9.46;100.00
36788;BME280;22738;45.560;9.434;2023-04-26T01:41:32;99546.31;;;9.09;100.00
36788;BME280;22738;45.560;9.434;2023-04-26T01:48:14;99553.50;;;9.04;100.00
36788;BME280;22738;45.560;9.434;2023-04-26T01:54:56;99548.78;;;9.11;100.00
36788;BME280;22738;45.560;9.434;2023-04-26T02:01:37;99549.78;;;8.68;100.00
36788;BME280;22738;45.560;9.434;2023-04-26T02:08:18;99549.97;;;8.65;100.00
36788;BME280;22738;45.560;9.434;2023-04-26T02:14:59;99557.97;;;8.88;100.00
36788;BME280;22738;45.560;9.434;2023-04-26T02:21:50;99564.19;;;8.86;100.00
36788;BME280;22738;45.560;9.434;2023-04-26T02:28:32;99570.09;;;8.74;100.00
36788;BME280;22738;45.560;9.434;2023-04-26T02:35:13;99567.03;;;8.81;100.00
36788;BME280;22738;45.560;9.434;2023-04-26T02:41:57;99569.34;;;8.86;100.00
36788;BME280;22738;45.560;9.434;2023-04-26T02:48:38;99563.88;;;8.48;100.00
36788;BME280;22738;45.560;9.434;2023-04-26T02:55:19;99552.34;;;8.82;100.00
36788;BME280;22738;45.560;9.434;2023-04-26T03:02:00;99566.19;;;8.52;100.00
36788;BME280;22738;45.560;9.434;2023-04-26T03:08:41;99562.41;;;8.44;100.00
36788;BME280;22738;45.560;9.434;2023-04-26T03:15:23;99566.75;;;8.57;100.00
36788;BME280;22738;45.560;9.434;2023-04-26T03:22:04;99563.53;;;8.10;100.00
36788;BME280;22738;45.560;9.434;2023-04-26T03:28:46;99556.63;;;7.81;100.00
36788;BME280;22738;45.560;9.434;2023-04-26T03:35:27;99571.84;;;7.85;100.00
36788;BME280;22738;45.560;9.434;2023-04-26T03:42:09;99573.75;;;7.82;100.00
36788;BME280;22738;45.560;9.434;2023-04-26T03:48:50;99583.66;;;7.89;100.00
36788;BME280;22738;45.560;9.434;2023-04-26T03:55:31;99581.19;;;8.02;100.00
36788;BME280;22738;45.560;9.434;2023-04-26T04:02:12;99574.03;;;8.07;100.00
36788;BME280;22738;45.560;9.434;2023-04-26T04:08:55;99573.31;;;8.19;100.00
36788;BME280;22738;45.560;9.434;2023-04-26T04:15:37;99579.28;;;7.76;100.00
36788;BME280;22738;45.560;9.434;2023-04-26T04:22:18;99587.06;;;7.90;100.00
36788;BME280;22738;45.560;9.434;2023-04-26T04:28:59;99592.34;;;8.03;100.00
36788;BME280;22738;45.560;9.434;2023-04-26T04:35:48;99590.97;;;8.11;100.00
36788;BME280;22738;45.560;9.434;2023-04-26T04:42:30;99595.97;;;8.44;100.00
36788;BME280;22738;45.560;9.434;2023-04-26T04:49:12;99586.78;;;10.80;100.00
36788;BME280;22738;45.560;9.434;2023-04-26T04:55:54;99589.91;;;9.95;100.00
36788;BME280;22738;45.560;9.434;2023-04-26T05:02:36;99602.38;;;9.50;100.00
36788;BME280;22738;45.560;9.434;2023-04-26T05:09:18;99605.28;;;9.31;100.00
36788;BME280;22738;45.560;9.434;2023-04-26T05:16:00;99624.91;;;9.48;100.00
36788;BME280;22738;45.560;9.434;2023-04-26T05:22:41;99633.75;;;9.72;100.00
36788;BME280;22738;45.560;9.434;2023-04-26T05:29:23;99637.75;;;9.90;100.00
36788;BME280;22738;45.560;9.434;2023-04-26T05:36:12;99652.56;;;10.15;100.00
36788;BME280;22738;45.560;9.434;2023-04-26T05:42:53;99651.97;;;10.24;100.00
36788;BME280;22738;45.560;9.434;2023-04-26T05:49:34;99647.78;;;10.60;100.00
36788;BME280;22738;45.560;9.434;2023-04-26T05:56:16;99651.41;;;10.96;100.00
36788;BME280;22738;45.560;9.434;2023-04-26T06:02:57;99656.97;;;11.40;100.00
36788;BME280;22738;45.560;9.434;2023-04-26T06:09:39;99676.53;;;17.87;100.00
36788;BME280;22738;45.560;9.434;2023-04-26T06:16:21;99692.09;;;22.93;57.88
36788;BME280;22738;45.560;9.434;2023-04-26T06:23:04;99703.63;;;24.65;48.26
36788;BME280;22738;45.560;9.434;2023-04-26T06:29:45;99706.09;;;25.91;47.22
36788;BME280;22738;45.560;9.434;2023-04-26T06:36:28;99708.06;;;26.62;45.23
36788;BME280;22738;45.560;9.434;2023-04-26T06:43:09;99700.44;;;28.40;40.83
36788;BME280;22738;45.560;9.434;2023-04-26T06:49:55;99710.84;;;28.79;38.11
36788;BME280;22738;45.560;9.434;2023-04-26T06:56:36;99716.50;;;28.89;37.56
36788;BME280;22738;45.560;9.434;2023-04-26T07:03:17;99717.31;;;29.14;37.40
36788;BME280;22738;45.560;9.434;2023-04-26T07:09:58;99724.97;;;30.61;34.74
36788;BME280;22738;45.560;9.434;2023-04-26T07:16:39;99719.31;;;30.92;32.77
36788;BME280;22738;45.560;9.434;2023-04-26T07:23:20;99719.19;;;30.75;32.61
36788;BME280;22738;45.560;9.434;2023-04-26T07:30:01;99722.25;;;30.49;30.08
36788;BME280;22738;45.560;9.434;2023-04-26T07:36:42;99722.31;;;29.47;32.14
36788;BME280;22738;45.560;9.434;2023-04-26T07:43:24;99724.34;;;28.84;33.30
36788;BME280;22738;45.560;9.434;2023-04-26T07:50:06;99720.19;;;28.32;34.65
36788;BME280;22738;45.560;9.434;2023-04-26T07:56:47;99726.97;;;27.84;36.03
36788;BME280;22738;45.560;9.434;2023-04-26T08:03:28;99716.47;;;26.46;35.54
36788;BME280;22738;45.560;9.434;2023-04-26T08:10:09;99709.59;;;24.10;39.61
36788;BME280;22738;45.560;9.434;2023-04-26T08:16:50;99709.00;;;23.94;40.13
36788;BME280;22738;45.560;9.434;2023-04-26T08:23:35;99708.91;;;23.00;38.61
36788;BME280;22738;45.560;9.434;2023-04-26T08:30:17;99718.69;;;22.77;39.86
36788;BME280;22738;45.560;9.434;2023-04-26T08:36:58;99728.84;;;23.54;37.28
36788;BME280;22738;45.560;9.434;2023-04-26T08:43:40;99725.69;;;23.07;36.65
36788;BME280;22738;45.560;9.434;2023-04-26T08:50:22;99721.78;;;23.32;37.29
36788;BME280;22738;45.560;9.434;2023-04-26T08:57:04;99728.56;;;22.37;36.92
36788;BME280;22738;45.560;9.434;2023-04-26T09:03:49;99730.53;;;22.66;38.24
36788;BME280;22738;45.560;9.434;2023-04-26T09:10:31;99714.94;;;23.23;38.56
36788;BME280;22738;45.560;9.434;2023-04-26T09:24:13;99720.13;;;22.42;37.78
36788;BME280;22738;45.560;9.434;2023-04-26T09:30:56;99714.09;;;22.25;38.92
36788;BME280;22738;45.560;9.434;2023-04-26T09:37:50;99718.47;;;22.41;38.25
36788;BME280;22738;45.560;9.434;2023-04-26T09:44:32;99717.75;;;22.69;40.11
36788;BME280;22738;45.560;9.434;2023-04-26T09:51:13;99714.53;;;22.97;43.03
36788;BME280;22738;45.560;9.434;2023-04-26T09:57:55;99707.09;;;23.15;42.83
36788;BME280;22738;45.560;9.434;2023-04-26T10:04:36;99705.56;;;22.83;50.91
36788;BME280;22738;45.560;9.434;2023-04-26T10:11:19;99696.88;;;23.12;48.00
36788;BME280;22738;45.560;9.434;2023-04-26T10:18:01;99689.69;;;22.68;43.92
36788;BME280;22738;45.560;9.434;2023-04-26T10:24:43;99680.59;;;22.86;43.63
36788;BME280;22738;45.560;9.434;2023-04-26T10:31:25;99680.84;;;23.28;44.58
36788;BME280;22738;45.560;9.434;2023-04-26T10:38:08;99677.91;;;23.23;45.29
36788;BME280;22738;45.560;9.434;2023-04-26T10:45:23;99664.41;;;23.18;47.05
36788;BME280;22738;45.560;9.434;2023-04-26T10:52:17;99652.06;;;22.66;42.70
36788;BME280;22738;45.560;9.434;2023-04-26T10:59:15;99656.19;;;22.84;43.87
36788;BME280;22738;45.560;9.434;2023-04-26T11:05:59;99651.97;;;22.75;42.37
36788;BME280;22738;45.560;9.434;2023-04-26T11:12:40;99640.88;;;22.42;45.08
36788;BME280;22738;45.560;9.434;2023-04-26T11:19:21;99652.13;;;22.13;44.03
36788;BME280;22738;45.560;9.434;2023-04-26T11:26:04;99645.91;;;22.06;47.13
36788;BME280;22738;45.560;9.434;2023-04-26T11:32:46;99631.66;;;22.15;42.99
36788;BME280;22738;45.560;9.434;2023-04-26T11:39:27;99627.00;;;22.17;44.25
36788;BME280;22738;45.560;9.434;2023-04-26T11:46:08;99613.13;;;22.00;47.15
36788;BME280;22738;45.560;9.434;2023-04-26T11:52:49;99614.31;;;22.35;49.50
36788;BME280;22738;45.560;9.434;2023-04-26T11:59:30;99613.47;;;22.20;47.48
36788;BME280;22738;45.560;9.434;2023-04-26T12:06:12;99605.81;;;21.80;45.71
36788;BME280;22738;45.560;9.434;2023-04-26T12:12:54;99601.81;;;21.92;46.06
36788;BME280;22738;45.560;9.434;2023-04-26T12:19:39;99600.97;;;22.14;45.70
36788;BME280;22738;45.560;9.434;2023-04-26T12:26:40;99599.34;;;22.50;43.60
36788;BME280;22738;45.560;9.434;2023-04-26T12:33:21;99606.03;;;22.24;43.17
36788;BME280;22738;45.560;9.434;2023-04-26T12:40:05;99598.03;;;22.09;43.33
36788;BME280;22738;45.560;9.434;2023-04-26T12:46:47;99581.00;;;22.34;42.02
36788;BME280;22738;45.560;9.434;2023-04-26T12:53:28;99581.41;;;22.60;39.98
36788;BME280;22738;45.560;9.434;2023-04-26T13:00:10;99571.91;;;22.51;35.89
36788;BME280;22738;45.560;9.434;2023-04-26T13:06:52;99577.34;;;22.35;39.75
36788;BME280;22738;45.560;9.434;2023-04-26T13:13:33;99579.72;;;22.30;41.01
36788;BME280;22738;45.560;9.434;2023-04-26T13:20:14;99569.00;;;21.86;38.52
36788;BME280;22738;45.560;9.434;2023-04-26T13:26:56;99572.56;;;22.16;38.83
36788;BME280;22738;45.560;9.434;2023-04-26T13:33:37;99570.28;;;22.13;37.97
36788;BME280;22738;45.560;9.434;2023-04-26T13:40:18;99555.75;;;22.32;37.36
36788;BME280;22738;45.560;9.434;2023-04-26T13:47:01;99555.38;;;22.20;37.26
36788;BME280;22738;45.560;9.434;2023-04-26T13:53:42;99550.16;;;22.12;35.54
36788;BME280;22738;45.560;9.434;2023-04-26T14:00:23;99541.44;;;21.89;34.67
36788;BME280;22738;45.560;9.434;2023-04-26T14:07:05;99529.53;;;21.93;37.07
36788;BME280;22738;45.560;9.434;2023-04-26T14:13:46;99521.75;;;22.14;32.81
36788;BME280;22738;45.560;9.434;2023-04-26T14:20:27;99523.66;;;21.83;34.54
36788;BME280;22738;45.560;9.434;2023-04-26T14:27:08;99534.22;;;22.06;35.36
36788;BME280;22738;45.560;9.434;2023-04-26T14:33:51;99523.69;;;22.20;36.12
36788;BME280;22738;45.560;9.434;2023-04-26T14:40:32;99518.00;;;22.60;32.02
36788;BME280;22738;45.560;9.434;2023-04-26T14:47:13;99512.00;;;22.66;31.04
36788;BME280;22738;45.560;9.434;2023-04-26T14:53:54;99495.31;;;22.37;33.46
36788;BME280;22738;45.560;9.434;2023-04-26T15:00:35;99493.56;;;22.58;32.17
36788;BME280;22738;45.560;9.434;2023-04-26T15:07:17;99495.56;;;22.56;28.84
36788;BME280;22738;45.560;9.434;2023-04-26T15:13:58;99497.00;;;22.15;32.26
36788;BME280;22738;45.560;9.434;2023-04-26T15:20:39;99491.75;;;22.30;33.75
36788;BME280;22738;45.560;9.434;2023-04-26T15:27:21;99490.81;;;22.52;33.91
36788;BME280;22738;45.560;9.434;2023-04-26T15:34:04;99479.91;;;22.40;34.74
36788;BME280;22738;45.560;9.434;2023-04-26T15:40:45;99484.81;;;22.58;35.15
36788;BME280;22738;45.560;9.434;2023-04-26T15:47:26;99478.91;;;22.85;33.46
36788;BME280;22738;45.560;9.434;2023-04-26T15:54:07;99486.47;;;22.59;34.03
36788;BME280;22738;45.560;9.434;2023-04-26T16:00:48;99474.06;;;22.30;33.75
36788;BME280;22738;45.560;9.434;2023-04-26T16:07:29;99482.25;;;22.21;32.15
36788;BME280;22738;45.560;9.434;2023-04-26T16:14:10;99472.94;;;21.95;34.81
36788;BME280;22738;45.560;9.434;2023-04-26T16:20:51;99470.47;;;21.94;35.92
36788;BME280;22738;45.560;9.434;2023-04-26T16:27:34;99467.56;;;21.81;35.74
36788;BME280;22738;45.560;9.434;2023-04-26T16:34:15;99474.63;;;21.88;35.10
36788;BME280;22738;45.560;9.434;2023-04-26T16:40:58;99479.16;;;21.80;36.17
36788;BME280;22738;45.560;9.434;2023-04-26T16:47:41;99474.41;;;21.53;37.86
36788;BME280;22738;45.560;9.434;2023-04-26T16:54:22;99470.88;;;21.60;36.53
36788;BME280;22738;45.560;9.434;2023-04-26T17:01:03;99471.59;;;21.31;38.08
36788;BME280;22738;45.560;9.434;2023-04-26T17:07:44;99475.56;;;21.27;38.87
36788;BME280;22738;45.560;9.434;2023-04-26T17:14:25;99482.59;;;21.12;40.60
36788;BME280;22738;45.560;9.434;2023-04-26T17:21:06;99488.56;;;21.29;40.23
36788;BME280;22738;45.560;9.434;2023-04-26T17:27:47;99483.31;;;20.90;40.67
36788;BME280;22738;45.560;9.434;2023-04-26T17:34:28;99488.38;;;20.61;41.46
36788;BME280;22738;45.560;9.434;2023-04-26T17:41:13;99487.13;;;20.41;42.22
36788;BME280;22738;45.560;9.434;2023-04-26T17:47:54;99495.03;;;20.41;42.99
36788;BME280;22738;45.560;9.434;2023-04-26T17:54:35;99502.31;;;19.99;43.31
36788;BME280;22738;45.560;9.434;2023-04-26T18:01:16;99505.13;;;19.65;45.41
36788;BME280;22738;45.560;9.434;2023-04-26T18:07:58;99507.69;;;19.41;45.98
36788;BME280;22738;45.560;9.434;2023-04-26T18:14:40;99507.75;;;19.15;48.03
36788;BME280;22738;45.560;9.434;2023-04-26T18:21:24;99516.56;;;18.90;52.94
36788;BME280;22738;45.560;9.434;2023-04-26T18:28:06;99516.44;;;18.66;53.00
36788;BME280;22738;45.560;9.434;2023-04-26T18:34:48;99515.31;;;18.17;63.19
36788;BME280;22738;45.560;9.434;2023-04-26T18:41:29;99522.63;;;17.70;92.21
36788;BME280;22738;45.560;9.434;2023-04-26T18:48:10;99535.59;;;17.27;100.00
36788;BME280;22738;45.560;9.434;2023-04-26T18:54:51;99553.94;;;16.99;100.00
36788;BME280;22738;45.560;9.434;2023-04-26T19:01:32;99554.09;;;16.61;100.00
36788;BME280;22738;45.560;9.434;2023-04-26T19:08:13;99567.34;;;16.31;100.00
36788;BME280;22738;45.560;9.434;2023-04-26T19:14:55;99579.78;;;16.10;100.00
36788;BME280;22738;45.560;9.434;2023-04-26T19:21:36;99584.72;;;15.75;100.00
36788;BME280;22738;45.560;9.434;2023-04-26T19:28:17;99597.34;;;15.50;100.00
36788;BME280;22738;45.560;9.434;2023-04-26T19:34:58;99592.88;;;15.32;100.00
36788;BME280;22738;45.560;9.434;2023-04-26T19:41:39;99603.28;;;15.22;100.00
36788;BME280;22738;45.560;9.434;2023-04-26T19:48:20;99608.91;;;15.08;100.00
36788;BME280;22738;45.560;9.434;2023-04-26T19:55:01;99617.19;;;14.92;100.00
36788;BME280;22738;45.560;9.434;2023-04-26T20:01:42;99630.00;;;14.75;100.00
36788;BME280;22738;45.560;9.434;2023-04-26T20:08:23;99629.31;;;14.52;100.00
36788;BME280;22738;45.560;9.434;2023-04-26T20:15:07;99633.78;;;14.61;100.00
36788;BME280;22738;45.560;9.434;2023-04-26T20:21:48;99646.25;;;14.58;100.00
36788;BME280;22738;45.560;9.434;2023-04-26T20:28:29;99650.06;;;14.33;100.00
36788;BME280;22738;45.560;9.434;2023-04-26T20:35:11;99654.09;;;14.26;100.00
36788;BME280;22738;45.560;9.434;2023-04-26T20:41:53;99667.03;;;14.16;100.00
36788;BME280;22738;45.560;9.434;2023-04-26T20:48:34;99672.97;;;14.18;100.00
36788;BME280;22738;45.560;9.434;2023-04-26T20:55:15;99676.50;;;14.17;100.00
36788;BME280;22738;45.560;9.434;2023-04-26T21:01:58;99677.94;;;14.21;100.00
36788;BME280;22738;45.560;9.434;2023-04-26T21:08:39;99683.00;;;13.91;100.00
36788;BME280;22738;45.560;9.434;2023-04-26T21:15:22;99688.88;;;14.04;100.00
36788;BME280;22738;45.560;9.434;2023-04-26T21:22:03;99696.69;;;14.04;100.00
36788;BME280;22738;45.560;9.434;2023-04-26T21:28:44;99703.13;;;14.00;100.00
36788;BME280;22738;45.560;9.434;2023-04-26T21:35:26;99712.16;;;13.85;100.00
36788;BME280;22738;45.560;9.434;2023-04-26T21:42:08;99717.16;;;13.66;100.00
36788;BME280;22738;45.560;9.434;2023-04-26T21:48:49;99722.59;;;13.63;100.00
36788;BME280;22738;45.560;9.434;2023-04-26T21:55:30;99721.88;;;13.61;100.00
36788;BME280;22738;45.560;9.434;2023-04-26T22:02:11;99729.00;;;13.59;100.00
36788;BME280;22738;45.560;9.434;2023-04-26T22:08:52;99723.44;;;13.52;100.00
36788;BME280;22738;45.560;9.434;2023-04-26T22:15:33;99717.88;;;13.57;100.00
36788;BME280;22738;45.560;9.434;2023-04-26T22:22:15;99724.75;;;13.58;100.00
36788;BME280;22738;45.560;9.434;2023-04-26T22:28:56;99724.97;;;13.55;100.00
36788;BME280;22738;45.560;9.434;2023-04-26T22:35:37;99736.81;;;13.48;100.00
36788;BME280;22738;45.560;9.434;2023-04-26T22:42:18;99742.59;;;13.29;100.00
36788;BME280;22738;45.560;9.434;2023-04-26T22:48:59;99751.72;;;13.35;100.00
36788;BME280;22738;45.560;9.434;2023-04-26T22:55:40;99758.31;;;13.17;100.00
36788;BME280;22738;45.560;9.434;2023-04-26T23:02:21;99759.03;;;13.19;100.00
36788;BME280;22738;45.560;9.434;2023-04-26T23:09:03;99766.72;;;13.20;100.00
36788;BME280;22738;45.560;9.434;2023-04-26T23:15:44;99771.19;;;13.07;100.00
36788;BME280;22738;45.560;9.434;2023-04-26T23:22:26;99775.28;;;12.99;100.00
36788;BME280;22738;45.560;9.434;2023-04-26T23:29:08;99770.38;;;12.83;100.00
36788;BME280;22738;45.560;9.434;2023-04-26T23:35:49;99765.97;;;12.72;100.00
36788;BME280;22738;45.560;9.434;2023-04-26T23:42:30;99773.13;;;12.58;100.00
36788;BME280;22738;45.560;9.434;2023-04-26T23:49:11;99768.31;;;12.64;100.00
36788;BME280;22738;45.560;9.434;2023-04-26T23:55:52;99768.53;;;12.61;100.00
